sensor_id;sensor_type;location;lat;lon;timestamp;temperature;humidity
10051;DHT22;5065;46.942;7.432;2023-08-30T00:00:33;14.60;99.90
10051;DHT22;5065;46.942;7.432;2023-08-30T00:03:01;14.60;99.90
10051;DHT22;5065;46.942;7.432;2023-08-30T00:05:29;14.60;99.90
10051;DHT22;5065;46.942;7.432;2023-08-30T00:07:56;14.60;99.90
10051;DHT22;5065;46.942;7.432;2023-08-30T00:10:24;14.60;99.90
10051;DHT22;5065;46.942;7.432;2023-08-30T00:12:51;14.70;99.90
10051;DHT22;5065;46.942;7.432;2023-08-30T00:15:18;14.70;99.90
10051;DHT22;5065;46.942;7.432;2023-08-30T00:17:45;14.70;99.90
10051;DHT22;5065;46.942;7.432;2023-08-30T00:20:12;14.70;99.90
10051;DHT22;5065;46.942;7.432;2023-08-30T00:22:41;14.70;99.90
10051;DHT22;5065;46.942;7.432;2023-08-30T00:25:08;14.70;99.90
10051;DHT22;5065;46.942;7.432;2023-08-30T00:27:35;14.70;99.90
10051;DHT22;5065;46.942;7.432;2023-08-30T00:30:03;14.70;99.90
10051;DHT22;5065;46.942;7.432;2023-08-30T00:32:34;14.70;99.90
10051;DHT22;5065;46.942;7.432;2023-08-30T00:35:02;14.70;99.90
10051;DHT22;5065;46.942;7.432;2023-08-30T00:37:29;14.70;99.90
10051;DHT22;5065;46.942;7.432;2023-08-30T00:39:58;14.70;99.90
10051;DHT22;5065;46.942;7.432;2023-08-30T00:42:27;14.60;99.90
10051;DHT22;5065;46.942;7.432;2023-08-30T00:44:54;14.70;99.90
10051;DHT22;5065;46.942;7.432;2023-08-30T00:47:22;14.60;99.90
10051;DHT22;5065;46.942;7.432;2023-08-30T00:49:49;14.50;99.90
10051;DHT22;5065;46.942;7.432;2023-08-30T00:52:16;14.60;99.90
10051;DHT22;5065;46.942;7.432;2023-08-30T00:54:44;14.60;99.90
10051;DHT22;5065;46.942;7.432;2023-08-30T00:57:13;14.50;99.90
10051;DHT22;5065;46.942;7.432;2023-08-30T00:59:40;14.60;99.90
10051;DHT22;5065;46.942;7.432;2023-08-30T01:02:07;14.60;99.90
10051;DHT22;5065;46.942;7.432;2023-08-30T01:04:35;14.60;99.90
10051;DHT22;5065;46.942;7.432;2023-08-30T01:07:02;14.60;99.90
10051;DHT22;5065;46.942;7.432;2023-08-30T01:09:30;14.60;99.90
10051;DHT22;5065;46.942;7.432;2023-08-30T01:12:00;14.60;99.90
10051;DHT22;5065;46.942;7.432;2023-08-30T01:14:38;14.60;99.90
10051;DHT22;5065;46.942;7.432;2023-08-30T01:17:07;14.60;99.90
10051;DHT22;5065;46.942;7.432;2023-08-30T01:19:42;14.60;99.90
10051;DHT22;5065;46.942;7.432;2023-08-30T01:22:19;14.60;99.90
10051;DHT22;5065;46.942;7.432;2023-08-30T01:24:58;14.50;99.90
10051;DHT22;5065;46.942;7.432;2023-08-30T01:27:31;14.50;99.90
10051;DHT22;5065;46.942;7.432;2023-08-30T01:30:02;14.50;99.90
10051;DHT22;5065;46.942;7.432;2023-08-30T01:32:32;14.40;99.90
10051;DHT22;5065;46.942;7.432;2023-08-30T01:35:00;14.40;99.90
10051;DHT22;5065;46.942;7.432;2023-08-30T01:37:28;14.30;99.90
10051;DHT22;5065;46.942;7.432;2023-08-30T01:39:57;14.40;99.90
10051;DHT22;5065;46.942;7.432;2023-08-30T01:42:25;14.40;99.90
10051;DHT22;5065;46.942;7.432;2023-08-30T01:44:56;14.30;99.90
10051;DHT22;5065;46.942;7.432;2023-08-30T01:47:28;14.30;99.90
10051;DHT22;5065;46.942;7.432;2023-08-30T01:49:55;14.30;99.90
10051;DHT22;5065;46.942;7.432;2023-08-30T01:52:24;14.30;99.90
10051;DHT22;5065;46.942;7.432;2023-08-30T01:54:52;14.30;99.90
10051;DHT22;5065;46.942;7.432;2023-08-30T01:57:19;14.30;99.90
10051;DHT22;5065;46.942;7.432;2023-08-30T01:59:47;14.30;99.90
10051;DHT22;5065;46.942;7.432;2023-08-30T02:02:18;14.20;99.90
10051;DHT22;5065;46.942;7.432;2023-08-30T02:04:45;14.20;99.90
10051;DHT22;5065;46.942;7.432;2023-08-30T02:07:16;14.20;99.90
10051;DHT22;5065;46.942;7.432;2023-08-30T02:09:54;14.20;99.90
10051;DHT22;5065;46.942;7.432;2023-08-30T02:12:25;14.20;99.90
10051;DHT22;5065;46.942;7.432;2023-08-30T02:14:56;14.20;99.90
10051;DHT22;5065;46.942;7.432;2023-08-30T02:17:26;14.20;99.90
10051;DHT22;5065;46.942;7.432;2023-08-30T02:19:53;14.20;99.90
10051;DHT22;5065;46.942;7.432;2023-08-30T02:22:20;14.10;99.90
10051;DHT22;5065;46.942;7.432;2023-08-30T02:24:48;14.10;99.90
10051;DHT22;5065;46.942;7.432;2023-08-30T02:27:15;14.10;99.90
10051;DHT22;5065;46.942;7.432;2023-08-30T02:29:42;14.10;99.90
10051;DHT22;5065;46.942;7.432;2023-08-30T02:32:09;14.10;99.90
10051;DHT22;5065;46.942;7.432;2023-08-30T02:34:39;14.00;99.90
10051;DHT22;5065;46.942;7.432;2023-08-30T02:37:06;14.10;99.90
10051;DHT22;5065;46.942;7.432;2023-08-30T02:39:33;14.10;99.90
10051;DHT22;5065;46.942;7.432;2023-08-30T02:42:01;14.00;99.90
10051;DHT22;5065;46.942;7.432;2023-08-30T02:44:29;14.00;99.90
10051;DHT22;5065;46.942;7.432;2023-08-30T02:46:56;14.00;99.90
10051;DHT22;5065;46.942;7.432;2023-08-30T02:49:23;14.00;99.90
10051;DHT22;5065;46.942;7.432;2023-08-30T02:51:52;14.00;99.90
10051;DHT22;5065;46.942;7.432;2023-08-30T02:54:19;14.00;99.90
10051;DHT22;5065;46.942;7.432;2023-08-30T02:56:49;14.10;99.90
10051;DHT22;5065;46.942;7.432;2023-08-30T02:59:17;14.00;99.90
10051;DHT22;5065;46.942;7.432;2023-08-30T03:01:44;14.00;99.90
10051;DHT22;5065;46.942;7.432;2023-08-30T03:04:11;14.00;99.90
10051;DHT22;5065;46.942;7.432;2023-08-30T03:06:38;14.10;99.90
10051;DHT22;5065;46.942;7.432;2023-08-30T03:09:07;14.00;99.90
10051;DHT22;5065;46.942;7.432;2023-08-30T03:11:34;14.00;99.90
10051;DHT22;5065;46.942;7.432;2023-08-30T03:14:01;14.00;99.90
10051;DHT22;5065;46.942;7.432;2023-08-30T03:16:28;14.10;99.90
10051;DHT22;5065;46.942;7.432;2023-08-30T03:18:56;14.10;99.90
10051;DHT22;5065;46.942;7.432;2023-08-30T03:21:23;14.10;99.90
10051;DHT22;5065;46.942;7.432;2023-08-30T03:23:50;14.10;99.90
10051;DHT22;5065;46.942;7.432;2023-08-30T03:26:18;14.20;99.90
10051;DHT22;5065;46.942;7.432;2023-08-30T03:28:46;14.10;99.90
10051;DHT22;5065;46.942;7.432;2023-08-30T03:31:16;14.10;99.90
10051;DHT22;5065;46.942;7.432;2023-08-30T03:33:44;14.10;99.90
10051;DHT22;5065;46.942;7.432;2023-08-30T03:36:13;14.10;99.90
10051;DHT22;5065;46.942;7.432;2023-08-30T03:38:41;14.10;99.90
10051;DHT22;5065;46.942;7.432;2023-08-30T03:41:09;14.20;99.90
10051;DHT22;5065;46.942;7.432;2023-08-30T03:43:38;14.10;99.90
10051;DHT22;5065;46.942;7.432;2023-08-30T03:46:06;14.20;99.90
10051;DHT22;5065;46.942;7.432;2023-08-30T03:48:35;14.10;99.90
10051;DHT22;5065;46.942;7.432;2023-08-30T03:51:02;14.10;99.90
10051;DHT22;5065;46.942;7.432;2023-08-30T03:53:29;14.10;99.90
10051;DHT22;5065;46.942;7.432;2023-08-30T03:55:56;14.00;99.90
10051;DHT22;5065;46.942;7.432;2023-08-30T03:58:25;14.00;99.90
10051;DHT22;5065;46.942;7.432;2023-08-30T04:00:53;14.00;99.90
10051;DHT22;5065;46.942;7.432;2023-08-30T04:03:21;14.00;99.90
10051;DHT22;5065;46.942;7.432;2023-08-30T04:05:48;14.00;99.90
10051;DHT22;5065;46.942;7.432;2023-08-30T04:08:15;14.00;99.90
10051;DHT22;5065;46.942;7.432;2023-08-30T04:10:42;14.00;99.90
10051;DHT22;5065;46.942;7.432;2023-08-30T04:13:13;14.00;99.90
10051;DHT22;5065;46.942;7.432;2023-08-30T04:15:41;14.00;99.90
10051;DHT22;5065;46.942;7.432;2023-08-30T04:18:09;14.00;99.90
10051;DHT22;5065;46.942;7.432;2023-08-30T04:20:42;14.00;99.90
10051;DHT22;5065;46.942;7.432;2023-08-30T04:23:20;14.00;99.90
10051;DHT22;5065;46.942;7.432;2023-08-30T04:25:47;14.00;99.90
10051;DHT22;5065;46.942;7.432;2023-08-30T04:28:14;14.00;99.90
10051;DHT22;5065;46.942;7.432;2023-08-30T04:30:42;14.00;99.90
10051;DHT22;5065;46.942;7.432;2023-08-30T04:33:11;14.00;99.90
10051;DHT22;5065;46.942;7.432;2023-08-30T04:35:38;14.00;99.90
10051;DHT22;5065;46.942;7.432;2023-08-30T04:38:05;14.00;99.90
10051;DHT22;5065;46.942;7.432;2023-08-30T04:40:33;14.00;99.90
10051;DHT22;5065;46.942;7.432;2023-08-30T04:43:00;13.90;99.90
10051;DHT22;5065;46.942;7.432;2023-08-30T04:45:27;13.90;99.90
10051;DHT22;5065;46.942;7.432;2023-08-30T04:47:58;13.90;99.90
10051;DHT22;5065;46.942;7.432;2023-08-30T04:50:27;13.80;99.90
10051;DHT22;5065;46.942;7.432;2023-08-30T04:52:54;13.80;99.90
10051;DHT22;5065;46.942;7.432;2023-08-30T04:55:21;13.80;99.90
10051;DHT22;5065;46.942;7.432;2023-08-30T04:57:48;13.70;99.90
10051;DHT22;5065;46.942;7.432;2023-08-30T05:00:16;13.70;99.90
10051;DHT22;5065;46.942;7.432;2023-08-30T05:02:44;13.70;99.90
10051;DHT22;5065;46.942;7.432;2023-08-30T05:05:12;13.70;99.90
10051;DHT22;5065;46.942;7.432;2023-08-30T05:07:41;13.70;99.90
10051;DHT22;5065;46.942;7.432;2023-08-30T05:10:09;13.70;99.90
10051;DHT22;5065;46.942;7.432;2023-08-30T05:12:38;13.70;99.90
10051;DHT22;5065;46.942;7.432;2023-08-30T05:15:07;13.70;99.90
10051;DHT22;5065;46.942;7.432;2023-08-30T05:17:34;13.80;99.90
10051;DHT22;5065;46.942;7.432;2023-08-30T05:20:01;13.70;99.90
10051;DHT22;5065;46.942;7.432;2023-08-30T05:22:30;13.80;99.90
10051;DHT22;5065;46.942;7.432;2023-08-30T05:24:58;13.80;99.90
10051;DHT22;5065;46.942;7.432;2023-08-30T05:27:26;13.90;99.90
10051;DHT22;5065;46.942;7.432;2023-08-30T05:29:53;13.80;99.90
10051;DHT22;5065;46.942;7.432;2023-08-30T05:32:21;13.80;99.90
10051;DHT22;5065;46.942;7.432;2023-08-30T05:34:48;13.80;99.90
10051;DHT22;5065;46.942;7.432;2023-08-30T05:37:16;13.80;99.90
10051;DHT22;5065;46.942;7.432;2023-08-30T05:39:43;13.80;99.90
10051;DHT22;5065;46.942;7.432;2023-08-30T05:42:11;13.80;99.90
10051;DHT22;5065;46.942;7.432;2023-08-30T05:44:38;13.80;99.90
10051;DHT22;5065;46.942;7.432;2023-08-30T05:47:05;13.80;99.90
10051;DHT22;5065;46.942;7.432;2023-08-30T05:49:32;13.80;99.90
10051;DHT22;5065;46.942;7.432;2023-08-30T05:52:00;13.80;99.90
10051;DHT22;5065;46.942;7.432;2023-08-30T05:54:27;13.80;99.90
10051;DHT22;5065;46.942;7.432;2023-08-30T05:56:57;13.80;99.90
10051;DHT22;5065;46.942;7.432;2023-08-30T05:59:25;13.90;99.90
10051;DHT22;5065;46.942;7.432;2023-08-30T06:01:53;14.00;99.90
10051;DHT22;5065;46.942;7.432;2023-08-30T06:04:20;14.00;99.90
10051;DHT22;5065;46.942;7.432;2023-08-30T06:06:48;14.00;99.90
10051;DHT22;5065;46.942;7.432;2023-08-30T06:09:15;14.10;99.90
10051;DHT22;5065;46.942;7.432;2023-08-30T06:11:43;14.10;99.90
10051;DHT22;5065;46.942;7.432;2023-08-30T06:14:10;14.10;99.90
10051;DHT22;5065;46.942;7.432;2023-08-30T06:16:38;14.20;99.90
10051;DHT22;5065;46.942;7.432;2023-08-30T06:19:09;14.30;99.90
10051;DHT22;5065;46.942;7.432;2023-08-30T06:21:36;14.40;99.90
10051;DHT22;5065;46.942;7.432;2023-08-30T06:24:04;14.40;99.90
10051;DHT22;5065;46.942;7.432;2023-08-30T06:26:31;14.50;99.90
10051;DHT22;5065;46.942;7.432;2023-08-30T06:28:59;14.60;99.90
10051;DHT22;5065;46.942;7.432;2023-08-30T06:31:26;14.80;99.90
10051;DHT22;5065;46.942;7.432;2023-08-30T06:33:56;14.80;99.90
10051;DHT22;5065;46.942;7.432;2023-08-30T06:36:23;14.80;99.90
10051;DHT22;5065;46.942;7.432;2023-08-30T06:38:53;15.00;99.90
10051;DHT22;5065;46.942;7.432;2023-08-30T06:41:20;15.10;99.90
10051;DHT22;5065;46.942;7.432;2023-08-30T06:43:47;15.10;99.90
10051;DHT22;5065;46.942;7.432;2023-08-30T06:46:15;15.10;99.90
10051;DHT22;5065;46.942;7.432;2023-08-30T06:48:42;15.10;99.90
10051;DHT22;5065;46.942;7.432;2023-08-30T06:51:11;15.20;99.90
10051;DHT22;5065;46.942;7.432;2023-08-30T06:53:39;15.30;99.90
10051;DHT22;5065;46.942;7.432;2023-08-30T06:56:06;15.30;99.90
10051;DHT22;5065;46.942;7.432;2023-08-30T06:58:33;15.30;99.90
10051;DHT22;5065;46.942;7.432;2023-08-30T07:01:00;15.30;99.90
10051;DHT22;5065;46.942;7.432;2023-08-30T07:03:29;15.40;99.90
10051;DHT22;5065;46.942;7.432;2023-08-30T07:05:56;15.60;99.90
10051;DHT22;5065;46.942;7.432;2023-08-30T07:08:24;15.80;99.90
10051;DHT22;5065;46.942;7.432;2023-08-30T07:10:52;16.00;99.90
10051;DHT22;5065;46.942;7.432;2023-08-30T07:13:19;16.10;99.90
10051;DHT22;5065;46.942;7.432;2023-08-30T07:15:46;16.20;99.90
10051;DHT22;5065;46.942;7.432;2023-08-30T07:18:14;16.30;99.90
10051;DHT22;5065;46.942;7.432;2023-08-30T07:20:41;16.40;99.90
10051;DHT22;5065;46.942;7.432;2023-08-30T07:23:08;16.50;99.90
10051;DHT22;5065;46.942;7.432;2023-08-30T07:25:38;16.50;99.90
10051;DHT22;5065;46.942;7.432;2023-08-30T07:28:05;16.60;99.90
10051;DHT22;5065;46.942;7.432;2023-08-30T07:30:33;16.70;99.90
10051;DHT22;5065;46.942;7.432;2023-08-30T07:33:01;16.70;99.90
10051;DHT22;5065;46.942;7.432;2023-08-30T07:35:29;16.80;99.90
10051;DHT22;5065;46.942;7.432;2023-08-30T07:37:56;16.90;99.90
10051;DHT22;5065;46.942;7.432;2023-08-30T07:40:25;17.00;99.90
10051;DHT22;5065;46.942;7.432;2023-08-30T07:42:55;17.00;99.90
10051;DHT22;5065;46.942;7.432;2023-08-30T07:45:24;17.00;99.90
10051;DHT22;5065;46.942;7.432;2023-08-30T07:47:51;17.10;99.90
10051;DHT22;5065;46.942;7.432;2023-08-30T07:50:18;17.20;99.90
10051;DHT22;5065;46.942;7.432;2023-08-30T07:52:46;17.40;99.90
10051;DHT22;5065;46.942;7.432;2023-08-30T07:55:14;17.30;99.90
10051;DHT22;5065;46.942;7.432;2023-08-30T07:57:41;17.50;99.90
10051;DHT22;5065;46.942;7.432;2023-08-30T08:00:11;17.70;99.90
10051;DHT22;5065;46.942;7.432;2023-08-30T08:02:39;17.80;99.90
10051;DHT22;5065;46.942;7.432;2023-08-30T08:05:07;17.90;99.90
10051;DHT22;5065;46.942;7.432;2023-08-30T08:07:39;18.00;99.90
10051;DHT22;5065;46.942;7.432;2023-08-30T08:10:07;18.10;99.90
10051;DHT22;5065;46.942;7.432;2023-08-30T08:12:35;18.20;99.90
10051;DHT22;5065;46.942;7.432;2023-08-30T08:15:03;18.30;99.90
10051;DHT22;5065;46.942;7.432;2023-08-30T08:17:31;18.30;99.90
10051;DHT22;5065;46.942;7.432;2023-08-30T08:19:58;18.30;99.90
10051;DHT22;5065;46.942;7.432;2023-08-30T08:22:26;18.30;99.90
10051;DHT22;5065;46.942;7.432;2023-08-30T08:24:54;18.40;99.90
10051;DHT22;5065;46.942;7.432;2023-08-30T08:27:24;18.30;99.90
10051;DHT22;5065;46.942;7.432;2023-08-30T08:29:51;18.40;99.90
10051;DHT22;5065;46.942;7.432;2023-08-30T08:32:18;18.40;99.90
10051;DHT22;5065;46.942;7.432;2023-08-30T08:34:47;18.40;99.90
10051;DHT22;5065;46.942;7.432;2023-08-30T08:37:14;18.40;99.90
10051;DHT22;5065;46.942;7.432;2023-08-30T08:39:42;18.40;99.90
10051;DHT22;5065;46.942;7.432;2023-08-30T08:42:11;18.40;99.90
10051;DHT22;5065;46.942;7.432;2023-08-30T08:44:39;18.60;99.90
10051;DHT22;5065;46.942;7.432;2023-08-30T08:47:08;18.60;99.90
10051;DHT22;5065;46.942;7.432;2023-08-30T08:49:35;18.60;99.90
10051;DHT22;5065;46.942;7.432;2023-08-30T08:52:05;18.70;99.90
10051;DHT22;5065;46.942;7.432;2023-08-30T08:54:33;18.70;99.90
10051;DHT22;5065;46.942;7.432;2023-08-30T08:57:00;18.70;99.90
10051;DHT22;5065;46.942;7.432;2023-08-30T08:59:28;18.80;99.90
10051;DHT22;5065;46.942;7.432;2023-08-30T09:01:55;18.80;99.90
10051;DHT22;5065;46.942;7.432;2023-08-30T09:04:24;18.80;99.90
10051;DHT22;5065;46.942;7.432;2023-08-30T09:06:52;18.90;99.90
10051;DHT22;5065;46.942;7.432;2023-08-30T09:09:20;18.90;99.90
10051;DHT22;5065;46.942;7.432;2023-08-30T09:11:48;18.90;99.90
10051;DHT22;5065;46.942;7.432;2023-08-30T09:14:15;19.00;99.90
10051;DHT22;5065;46.942;7.432;2023-08-30T09:16:42;19.10;99.90
10051;DHT22;5065;46.942;7.432;2023-08-30T09:19:09;19.10;99.90
10051;DHT22;5065;46.942;7.432;2023-08-30T09:21:37;19.20;99.90
10051;DHT22;5065;46.942;7.432;2023-08-30T09:24:05;19.30;99.90
10051;DHT22;5065;46.942;7.432;2023-08-30T09:26:35;19.30;99.90
10051;DHT22;5065;46.942;7.432;2023-08-30T09:29:05;19.40;99.90
10051;DHT22;5065;46.942;7.432;2023-08-30T09:31:33;19.50;99.90
10051;DHT22;5065;46.942;7.432;2023-08-30T09:34:02;19.50;99.90
10051;DHT22;5065;46.942;7.432;2023-08-30T09:36:35;19.60;99.90
10051;DHT22;5065;46.942;7.432;2023-08-30T09:39:07;19.70;99.90
10051;DHT22;5065;46.942;7.432;2023-08-30T09:41:36;19.70;99.90
10051;DHT22;5065;46.942;7.432;2023-08-30T09:44:09;19.70;99.90
10051;DHT22;5065;46.942;7.432;2023-08-30T09:46:43;19.80;99.90
10051;DHT22;5065;46.942;7.432;2023-08-30T09:49:13;19.80;99.90
10051;DHT22;5065;46.942;7.432;2023-08-30T09:51:41;19.90;99.90
10051;DHT22;5065;46.942;7.432;2023-08-30T09:54:14;20.00;99.90
10051;DHT22;5065;46.942;7.432;2023-08-30T09:56:43;20.00;99.90
10051;DHT22;5065;46.942;7.432;2023-08-30T09:59:11;20.10;99.90
10051;DHT22;5065;46.942;7.432;2023-08-30T10:01:40;20.20;99.90
10051;DHT22;5065;46.942;7.432;2023-08-30T10:04:08;20.30;99.90
10051;DHT22;5065;46.942;7.432;2023-08-30T10:06:36;20.40;99.90
10051;DHT22;5065;46.942;7.432;2023-08-30T10:09:04;20.60;99.90
10051;DHT22;5065;46.942;7.432;2023-08-30T10:11:33;20.70;99.90
10051;DHT22;5065;46.942;7.432;2023-08-30T10:14:04;20.80;99.90
10051;DHT22;5065;46.942;7.432;2023-08-30T10:16:37;20.90;99.90
10051;DHT22;5065;46.942;7.432;2023-08-30T10:19:10;21.10;99.90
10051;DHT22;5065;46.942;7.432;2023-08-30T10:21:39;21.20;99.90
10051;DHT22;5065;46.942;7.432;2023-08-30T10:24:09;21.30;99.90
10051;DHT22;5065;46.942;7.432;2023-08-30T10:26:38;21.30;99.90
10051;DHT22;5065;46.942;7.432;2023-08-30T10:29:10;21.40;99.90
10051;DHT22;5065;46.942;7.432;2023-08-30T10:31:40;21.50;99.90
10051;DHT22;5065;46.942;7.432;2023-08-30T10:34:15;21.60;99.90
10051;DHT22;5065;46.942;7.432;2023-08-30T10:36:43;21.70;99.90
10051;DHT22;5065;46.942;7.432;2023-08-30T10:39:14;21.80;99.90
10051;DHT22;5065;46.942;7.432;2023-08-30T10:41:57;21.90;99.90
10051;DHT22;5065;46.942;7.432;2023-08-30T10:44:25;21.90;99.90
10051;DHT22;5065;46.942;7.432;2023-08-30T10:46:55;21.90;99.90
10051;DHT22;5065;46.942;7.432;2023-08-30T10:49:22;21.90;99.90
10051;DHT22;5065;46.942;7.432;2023-08-30T10:51:56;21.90;99.90
10051;DHT22;5065;46.942;7.432;2023-08-30T10:54:24;22.00;99.90
10051;DHT22;5065;46.942;7.432;2023-08-30T10:56:56;22.00;99.90
10051;DHT22;5065;46.942;7.432;2023-08-30T10:59:28;22.00;99.90
10051;DHT22;5065;46.942;7.432;2023-08-30T11:01:56;22.00;99.90
10051;DHT22;5065;46.942;7.432;2023-08-30T11:04:23;22.10;99.90
10051;DHT22;5065;46.942;7.432;2023-08-30T11:06:51;22.10;99.90
10051;DHT22;5065;46.942;7.432;2023-08-30T11:09:22;22.20;99.90
10051;DHT22;5065;46.942;7.432;2023-08-30T11:11:52;22.20;99.90
10051;DHT22;5065;46.942;7.432;2023-08-30T11:14:19;22.20;99.90
10051;DHT22;5065;46.942;7.432;2023-08-30T11:16:48;22.20;99.90
10051;DHT22;5065;46.942;7.432;2023-08-30T11:19:15;22.20;99.90
10051;DHT22;5065;46.942;7.432;2023-08-30T11:21:44;22.20;99.90
10051;DHT22;5065;46.942;7.432;2023-08-30T11:24:11;22.20;99.90
10051;DHT22;5065;46.942;7.432;2023-08-30T11:26:39;22.20;99.90
10051;DHT22;5065;46.942;7.432;2023-08-30T11:29:07;22.20;99.90
10051;DHT22;5065;46.942;7.432;2023-08-30T11:31:35;22.10;99.90
10051;DHT22;5065;46.942;7.432;2023-08-30T11:34:04;22.10;99.90
10051;DHT22;5065;46.942;7.432;2023-08-30T11:36:32;22.10;99.90
10051;DHT22;5065;46.942;7.432;2023-08-30T11:39:02;22.00;99.90
10051;DHT22;5065;46.942;7.432;2023-08-30T11:41:32;21.90;99.90
10051;DHT22;5065;46.942;7.432;2023-08-30T11:43:59;21.90;99.90
10051;DHT22;5065;46.942;7.432;2023-08-30T11:46:30;21.90;99.90
10051;DHT22;5065;46.942;7.432;2023-08-30T11:48:58;21.80;99.90
10051;DHT22;5065;46.942;7.432;2023-08-30T11:51:27;21.90;99.90
10051;DHT22;5065;46.942;7.432;2023-08-30T11:53:55;21.90;99.90
10051;DHT22;5065;46.942;7.432;2023-08-30T11:56:23;21.90;99.90
10051;DHT22;5065;46.942;7.432;2023-08-30T11:58:50;21.80;99.90
10051;DHT22;5065;46.942;7.432;2023-08-30T12:01:20;21.80;99.90
10051;DHT22;5065;46.942;7.432;2023-08-30T12:03:47;21.80;99.90
10051;DHT22;5065;46.942;7.432;2023-08-30T12:06:16;21.80;99.90
10051;DHT22;5065;46.942;7.432;2023-08-30T12:08:45;21.70;99.90
10051;DHT22;5065;46.942;7.432;2023-08-30T12:11:18;21.70;99.90
10051;DHT22;5065;46.942;7.432;2023-08-30T12:13:46;21.60;99.90
10051;DHT22;5065;46.942;7.432;2023-08-30T12:16:17;21.50;99.90
10051;DHT22;5065;46.942;7.432;2023-08-30T12:18:46;21.40;99.90
10051;DHT22;5065;46.942;7.432;2023-08-30T12:21:13;21.40;99.90
10051;DHT22;5065;46.942;7.432;2023-08-30T12:23:41;21.40;99.90
10051;DHT22;5065;46.942;7.432;2023-08-30T12:26:10;21.40;99.90
10051;DHT22;5065;46.942;7.432;2023-08-30T12:28:39;21.50;99.90
10051;DHT22;5065;46.942;7.432;2023-08-30T12:31:07;21.50;99.90
10051;DHT22;5065;46.942;7.432;2023-08-30T12:33:37;21.50;99.90
10051;DHT22;5065;46.942;7.432;2023-08-30T12:36:06;21.50;99.90
10051;DHT22;5065;46.942;7.432;2023-08-30T12:38:33;21.50;99.90
10051;DHT22;5065;46.942;7.432;2023-08-30T12:41:01;21.50;99.90
10051;DHT22;5065;46.942;7.432;2023-08-30T12:43:30;21.50;99.90
10051;DHT22;5065;46.942;7.432;2023-08-30T12:45:57;21.50;99.90
10051;DHT22;5065;46.942;7.432;2023-08-30T12:48:24;21.50;99.90
10051;DHT22;5065;46.942;7.432;2023-08-30T12:50:51;21.50;99.90
10051;DHT22;5065;46.942;7.432;2023-08-30T12:53:18;21.50;99.90
10051;DHT22;5065;46.942;7.432;2023-08-30T12:55:45;21.60;99.90
10051;DHT22;5065;46.942;7.432;2023-08-30T12:58:13;21.60;99.90
10051;DHT22;5065;46.942;7.432;2023-08-30T13:00:47;21.60;99.90
10051;DHT22;5065;46.942;7.432;2023-08-30T13:03:14;21.60;99.90
10051;DHT22;5065;46.942;7.432;2023-08-30T13:05:42;21.60;99.90
10051;DHT22;5065;46.942;7.432;2023-08-30T13:08:09;21.60;99.90
10051;DHT22;5065;46.942;7.432;2023-08-30T13:10:36;21.60;99.90
10051;DHT22;5065;46.942;7.432;2023-08-30T13:13:03;21.60;99.90
10051;DHT22;5065;46.942;7.432;2023-08-30T13:15:30;21.60;99.90
10051;DHT22;5065;46.942;7.432;2023-08-30T13:17:59;21.60;99.90
10051;DHT22;5065;46.942;7.432;2023-08-30T13:20:26;21.60;99.90
10051;DHT22;5065;46.942;7.432;2023-08-30T13:22:53;21.50;99.90
10051;DHT22;5065;46.942;7.432;2023-08-30T13:25:21;21.50;99.90
10051;DHT22;5065;46.942;7.432;2023-08-30T13:27:50;21.50;99.90
10051;DHT22;5065;46.942;7.432;2023-08-30T13:30:19;21.40;99.90
10051;DHT22;5065;46.942;7.432;2023-08-30T13:32:45;21.40;99.90
10051;DHT22;5065;46.942;7.432;2023-08-30T13:35:14;21.40;99.90
10051;DHT22;5065;46.942;7.432;2023-08-30T13:37:42;21.40;99.90
10051;DHT22;5065;46.942;7.432;2023-08-30T13:40:11;21.50;99.90
10051;DHT22;5065;46.942;7.432;2023-08-30T13:42:38;21.50;99.90
10051;DHT22;5065;46.942;7.432;2023-08-30T13:45:07;21.50;99.90
10051;DHT22;5065;46.942;7.432;2023-08-30T13:47:38;21.50;99.90
10051;DHT22;5065;46.942;7.432;2023-08-30T13:50:06;21.60;99.90
10051;DHT22;5065;46.942;7.432;2023-08-30T13:52:35;21.60;99.90
10051;DHT22;5065;46.942;7.432;2023-08-30T13:55:02;21.60;99.90
10051;DHT22;5065;46.942;7.432;2023-08-30T13:57:29;21.50;99.90
10051;DHT22;5065;46.942;7.432;2023-08-30T13:59:57;21.60;99.90
10051;DHT22;5065;46.942;7.432;2023-08-30T14:02:26;21.60;99.90
10051;DHT22;5065;46.942;7.432;2023-08-30T14:04:54;21.50;99.90
10051;DHT22;5065;46.942;7.432;2023-08-30T14:07:23;21.50;99.90
10051;DHT22;5065;46.942;7.432;2023-08-30T14:09:52;21.50;99.90
10051;DHT22;5065;46.942;7.432;2023-08-30T14:12:19;21.50;99.90
10051;DHT22;5065;46.942;7.432;2023-08-30T14:14:48;21.50;99.90
10051;DHT22;5065;46.942;7.432;2023-08-30T14:17:21;21.50;99.90
10051;DHT22;5065;46.942;7.432;2023-08-30T14:19:51;21.40;99.90
10051;DHT22;5065;46.942;7.432;2023-08-30T14:22:18;21.40;99.90
10051;DHT22;5065;46.942;7.432;2023-08-30T14:24:45;21.40;99.90
10051;DHT22;5065;46.942;7.432;2023-08-30T14:27:14;21.40;99.90
10051;DHT22;5065;46.942;7.432;2023-08-30T14:29:42;21.40;99.90
10051;DHT22;5065;46.942;7.432;2023-08-30T14:32:10;21.40;99.90
10051;DHT22;5065;46.942;7.432;2023-08-30T14:34:40;21.40;99.90
10051;DHT22;5065;46.942;7.432;2023-08-30T14:37:07;21.40;99.90
10051;DHT22;5065;46.942;7.432;2023-08-30T14:39:35;21.40;99.90
10051;DHT22;5065;46.942;7.432;2023-08-30T14:42:02;21.40;99.90
10051;DHT22;5065;46.942;7.432;2023-08-30T14:44:31;21.40;99.90
10051;DHT22;5065;46.942;7.432;2023-08-30T14:46:58;21.40;99.90
10051;DHT22;5065;46.942;7.432;2023-08-30T14:49:26;21.40;99.90
10051;DHT22;5065;46.942;7.432;2023-08-30T14:51:54;21.40;99.90
10051;DHT22;5065;46.942;7.432;2023-08-30T14:54:21;21.30;99.90
10051;DHT22;5065;46.942;7.432;2023-08-30T14:56:48;21.40;99.90
10051;DHT22;5065;46.942;7.432;2023-08-30T14:59:16;21.40;99.90
10051;DHT22;5065;46.942;7.432;2023-08-30T15:01:44;21.40;99.90
10051;DHT22;5065;46.942;7.432;2023-08-30T15:04:11;21.40;99.90
10051;DHT22;5065;46.942;7.432;2023-08-30T15:06:39;21.40;99.90
10051;DHT22;5065;46.942;7.432;2023-08-30T15:09:06;21.40;99.90
10051;DHT22;5065;46.942;7.432;2023-08-30T15:11:33;21.50;99.90
10051;DHT22;5065;46.942;7.432;2023-08-30T15:14:00;21.50;99.90
10051;DHT22;5065;46.942;7.432;2023-08-30T15:16:28;21.50;99.90
10051;DHT22;5065;46.942;7.432;2023-08-30T15:18:59;21.50;99.90
10051;DHT22;5065;46.942;7.432;2023-08-30T15:21:26;21.40;99.90
10051;DHT22;5065;46.942;7.432;2023-08-30T15:23:56;21.40;99.90
10051;DHT22;5065;46.942;7.432;2023-08-30T15:26:24;21.40;99.90
10051;DHT22;5065;46.942;7.432;2023-08-30T15:28:52;21.40;99.90
10051;DHT22;5065;46.942;7.432;2023-08-30T15:31:19;21.40;99.90
10051;DHT22;5065;46.942;7.432;2023-08-30T15:33:46;21.40;99.90
10051;DHT22;5065;46.942;7.432;2023-08-30T15:36:15;21.40;99.90
10051;DHT22;5065;46.942;7.432;2023-08-30T15:38:42;21.40;99.90
10051;DHT22;5065;46.942;7.432;2023-08-30T15:41:11;21.40;99.90
10051;DHT22;5065;46.942;7.432;2023-08-30T15:43:42;21.30;99.90
10051;DHT22;5065;46.942;7.432;2023-08-30T15:46:10;21.30;99.90
10051;DHT22;5065;46.942;7.432;2023-08-30T15:48:38;21.30;99.90
10051;DHT22;5065;46.942;7.432;2023-08-30T15:51:09;21.30;99.90